createdAt,value
2018-01-11T00:01:55.785Z,40.27
2018-01-11T00:04:23.333Z,43.50
2018-01-11T00:06:50.866Z,42.43
2018-01-11T00:09:18.509Z,41.43
2018-01-11T00:11:46.034Z,42.27
2018-01-11T00:14:13.616Z,45.17
2018-01-11T00:16:41.145Z,39.43
2018-01-11T00:19:08.752Z,41.87
2018-01-11T00:21:36.400Z,41.60
2018-01-11T00:24:03.926Z,42.30
2018-01-11T00:26:31.464Z,41.20
2018-01-11T00:28:58.989Z,42.70
2018-01-11T00:31:26.513Z,42.03
2018-01-11T00:33:54.079Z,42.67
2018-01-11T00:36:21.601Z,44.70
2018-01-11T00:38:49.223Z,41.53
2018-01-11T00:41:16.783Z,42.67
2018-01-11T00:43:44.315Z,43.47
2018-01-11T00:46:11.842Z,46.90
2018-01-11T00:48:39.369Z,42.37
2018-01-11T00:51:06.895Z,43.10
2018-01-11T00:53:34.420Z,42.83
2018-01-11T00:56:01.954Z,41.63
2018-01-11T00:58:29.489Z,44.07
2018-01-11T01:00:57.173Z,44.63
2018-01-11T01:03:24.728Z,44.03
2018-01-11T01:05:52.286Z,44.43
2018-01-11T01:08:19.849Z,43.50
2018-01-11T01:10:47.382Z,43.67
2018-01-11T01:13:14.968Z,42.53
2018-01-11T01:15:42.499Z,43.00
2018-01-11T01:18:10.027Z,42.60
2018-01-11T01:20:37.549Z,47.67
2018-01-11T01:23:05.107Z,41.90
2018-01-11T01:25:32.634Z,42.47
2018-01-11T01:28:00.154Z,41.90
2018-01-11T01:30:27.690Z,44.13
2018-01-11T01:32:55.339Z,43.37
2018-01-11T01:35:22.870Z,42.17
2018-01-11T01:37:50.463Z,40.57
2018-01-11T01:40:18.000Z,39.73
2018-01-11T01:42:45.525Z,41.27
2018-01-11T01:45:13.153Z,40.07
2018-01-11T01:47:40.810Z,42.43
2018-01-11T01:50:08.370Z,40.57
2018-01-11T01:52:35.885Z,38.67
2018-01-11T01:55:03.423Z,38.43
2018-01-11T01:57:30.971Z,39.83
2018-01-11T01:59:58.493Z,38.37
2018-01-11T02:02:26.059Z,40.07
2018-01-11T02:04:53.586Z,38.63
2018-01-11T02:07:21.143Z,39.40
2018-01-11T02:09:48.668Z,38.07
2018-01-11T02:12:16.214Z,37.03
2018-01-11T02:14:43.745Z,36.90
2018-01-11T02:17:11.280Z,37.43
2018-01-11T02:19:38.808Z,36.80
2018-01-11T02:22:06.341Z,34.90
2018-01-11T02:24:33.865Z,38.07
2018-01-11T02:27:01.417Z,35.53
2018-01-11T02:29:28.954Z,37.93
2018-01-11T02:31:56.475Z,37.40
2018-01-11T02:34:24.000Z,38.53
2018-01-11T02:36:51.525Z,39.63
2018-01-11T02:39:19.051Z,38.00
2018-01-11T02:41:46.617Z,37.03
2018-01-11T02:44:14.146Z,37.17
2018-01-11T02:52:26.929Z,35.30
2018-01-11T02:54:54.449Z,35.10
2018-01-11T02:57:21.978Z,35.73
2018-01-11T02:59:49.516Z,34.10
2018-01-11T03:02:17.033Z,32.63
2018-01-11T03:04:44.622Z,33.50
2018-01-11T03:07:12.187Z,34.57
2018-01-11T03:09:39.733Z,33.50
2018-01-11T03:12:07.303Z,34.17
2018-01-11T03:14:34.867Z,33.47
2018-01-11T03:17:02.386Z,35.43
2018-01-11T03:19:29.942Z,35.43
2018-01-11T03:21:57.470Z,37.10
2018-01-11T03:24:24.989Z,35.57
2018-01-11T03:26:52.502Z,36.50
2018-01-11T03:29:20.120Z,37.97
2018-01-11T03:31:47.644Z,36.83
2018-01-11T03:34:15.246Z,36.83
2018-01-11T03:36:42.778Z,37.50
2018-01-11T03:39:10.314Z,38.07
2018-01-11T03:41:37.830Z,38.70
2018-01-11T03:44:05.383Z,39.07
2018-01-11T03:46:32.939Z,40.77
2018-01-11T03:49:00.464Z,38.60
2018-01-11T03:51:28.005Z,38.20
2018-01-11T03:53:55.525Z,36.80
2018-01-11T03:56:23.068Z,38.03
2018-01-11T03:58:50.606Z,40.03
2018-01-11T04:01:18.126Z,39.97
2018-01-11T04:03:45.655Z,39.23
2018-01-11T04:06:13.190Z,36.33
2018-01-11T04:08:40.713Z,37.67
2018-01-11T04:11:08.324Z,38.37
2018-01-11T04:13:35.846Z,35.80
2018-01-11T04:16:03.384Z,37.80
2018-01-11T04:18:30.911Z,38.40
2018-01-11T04:20:58.438Z,34.63
2018-01-11T04:23:25.970Z,35.63
2018-01-11T04:25:53.496Z,34.33
2018-01-11T04:28:21.032Z,33.50
2018-01-11T04:30:48.557Z,33.47
2018-01-11T04:33:16.079Z,32.63
2018-01-11T04:35:43.638Z,31.77
2018-01-11T04:38:11.159Z,34.20
2018-01-11T04:40:38.680Z,33.83
2018-01-11T04:43:06.196Z,34.53
2018-01-11T04:45:33.717Z,35.30
2018-01-11T04:48:01.242Z,33.67
2018-01-11T04:50:28.759Z,33.80
2018-01-11T04:52:56.348Z,36.17
2018-01-11T04:55:23.864Z,36.87
2018-01-11T04:57:51.456Z,37.70
2018-01-11T05:00:18.987Z,40.10
2018-01-11T05:02:46.537Z,39.83
2018-01-11T05:05:14.115Z,39.67
2018-01-11T05:07:41.703Z,40.83
2018-01-11T05:10:09.221Z,41.70
2018-01-11T05:12:36.816Z,39.17
2018-01-11T05:15:04.341Z,39.27
2018-01-11T05:17:31.944Z,38.37
2018-01-11T05:19:59.461Z,37.83
2018-01-11T05:22:27.008Z,37.10
2018-01-11T05:24:54.615Z,37.57
2018-01-11T05:27:22.174Z,37.40
2018-01-11T05:29:49.703Z,37.07
2018-01-11T05:32:17.296Z,37.37
2018-01-11T05:34:44.827Z,36.00
2018-01-11T05:37:12.361Z,35.83
2018-01-11T05:39:39.872Z,35.47
2018-01-11T05:42:07.403Z,34.53
2018-01-11T05:44:34.963Z,36.00
2018-01-11T05:47:02.561Z,36.10
2018-01-11T05:49:30.076Z,35.67
2018-01-11T05:51:57.681Z,35.70
2018-01-11T05:54:25.198Z,36.07
2018-01-11T05:56:52.807Z,38.03
2018-01-11T05:59:20.358Z,39.60
2018-01-11T06:01:47.913Z,36.73
2018-01-11T06:04:15.432Z,38.10
2018-01-11T06:06:43.005Z,40.07
2018-01-11T06:09:10.525Z,39.10
2018-01-11T06:11:38.050Z,41.27
2018-01-11T06:14:05.578Z,39.77
2018-01-11T06:16:33.111Z,37.97
2018-01-11T06:19:00.639Z,38.27
2018-01-11T06:21:28.169Z,38.83
2018-01-11T06:23:55.765Z,38.97
2018-01-11T06:26:23.290Z,38.77
2018-01-11T06:28:50.810Z,39.07
2018-01-11T06:31:18.340Z,37.40
2018-01-11T06:33:45.866Z,37.53
2018-01-11T06:36:13.381Z,36.17
2018-01-11T06:38:40.903Z,37.27
2018-01-11T06:41:08.429Z,38.17
2018-01-11T06:43:36.054Z,36.97
2018-01-11T06:46:03.592Z,38.60
2018-01-11T06:48:31.158Z,39.00
2018-01-11T06:50:58.690Z,36.50
2018-01-11T06:53:26.264Z,35.93
2018-01-11T06:55:53.836Z,37.27
2018-01-11T06:58:21.385Z,38.33
2018-01-11T07:00:48.909Z,36.60
2018-01-11T07:03:16.513Z,36.93
2018-01-11T07:05:44.041Z,40.03
2018-01-11T07:08:11.577Z,38.40
2018-01-11T07:10:39.101Z,36.37
2018-01-11T07:13:06.622Z,36.57
2018-01-11T07:15:34.215Z,35.30
2018-01-11T07:18:01.753Z,36.07
2018-01-11T07:20:29.268Z,35.10
2018-01-11T07:22:56.840Z,35.30
2018-01-11T07:25:24.459Z,36.73
2018-01-11T07:27:51.982Z,37.90
2018-01-11T07:30:19.783Z,34.77
2018-01-11T07:32:47.308Z,36.50
2018-01-11T07:35:14.829Z,37.40
2018-01-11T07:37:42.347Z,35.77
2018-01-11T07:40:09.869Z,37.73
2018-01-11T07:42:37.406Z,37.93
2018-01-11T07:45:05.036Z,37.97
2018-01-11T07:47:32.567Z,38.33
2018-01-11T07:50:00.090Z,35.77
2018-01-11T07:52:27.605Z,37.77
2018-01-11T07:54:55.122Z,39.87
2018-01-11T07:57:22.660Z,39.67
2018-01-11T07:59:50.177Z,38.47
2018-01-11T08:02:17.706Z,39.23
2018-01-11T08:04:45.221Z,40.57
2018-01-11T08:07:12.769Z,40.57
2018-01-11T08:09:40.290Z,39.57
2018-01-11T08:12:07.818Z,41.57
2018-01-11T08:14:35.334Z,39.80
2018-01-11T08:17:02.869Z,40.73
2018-01-11T08:19:30.390Z,40.00
2018-01-11T08:21:57.913Z,41.97
2018-01-11T08:24:25.457Z,38.60
2018-01-11T08:26:53.033Z,40.10
2018-01-11T08:29:20.558Z,41.50
2018-01-11T08:31:48.095Z,39.50
2018-01-11T08:34:15.713Z,41.73
2018-01-11T08:36:43.230Z,42.63
2018-01-11T08:39:10.758Z,40.60
2018-01-11T08:41:38.268Z,37.47
2018-01-11T08:44:05.790Z,37.17
2018-01-11T08:46:33.309Z,37.67
2018-01-11T08:49:00.828Z,34.90
2018-01-11T08:51:28.356Z,35.87
2018-01-11T08:53:55.868Z,34.53
2018-01-11T08:56:23.427Z,34.43
2018-01-11T08:58:51.020Z,35.90
2018-01-11T09:01:18.565Z,36.37
2018-01-11T09:03:46.094Z,35.90
2018-01-11T09:06:13.630Z,36.47
2018-01-11T09:08:41.244Z,35.83
2018-01-11T09:11:08.764Z,36.73
2018-01-11T09:13:36.301Z,36.53
2018-01-11T09:16:03.937Z,37.33
2018-01-11T09:18:31.457Z,34.20
2018-01-11T09:20:59.012Z,34.33
2018-01-11T09:23:26.529Z,33.87
2018-01-11T09:25:54.044Z,33.67
2018-01-11T09:28:21.592Z,32.20
2018-01-11T09:30:49.126Z,32.53
2018-01-11T09:33:16.650Z,33.57
2018-01-11T09:35:44.169Z,33.90
2018-01-11T09:38:11.698Z,33.37
2018-01-11T09:40:39.332Z,33.97
2018-01-11T09:43:06.853Z,33.87
2018-01-11T09:45:34.378Z,32.13
2018-01-11T09:48:01.906Z,33.80
2018-01-11T09:50:29.425Z,32.67
2018-01-11T09:52:56.949Z,31.60
2018-01-11T09:55:24.475Z,34.17
2018-01-11T09:57:51.995Z,32.83
2018-01-11T10:00:19.523Z,32.93
2018-01-11T10:02:47.037Z,32.33
2018-01-11T10:05:14.559Z,34.37
2018-01-11T10:07:42.086Z,33.87
2018-01-11T10:10:09.629Z,33.37
2018-01-11T10:12:37.159Z,34.00
2018-01-11T10:15:04.735Z,33.27
2018-01-11T10:17:32.274Z,32.63
2018-01-11T10:19:59.839Z,33.97
2018-01-11T10:22:27.353Z,33.87
2018-01-11T10:24:54.866Z,33.70
2018-01-11T10:27:22.413Z,33.53
2018-01-11T10:29:49.941Z,33.77
2018-01-11T10:32:17.640Z,33.63
2018-01-11T10:34:45.239Z,32.90
2018-01-11T10:37:12.904Z,33.43
2018-01-11T10:39:40.454Z,33.53
2018-01-11T10:42:08.030Z,33.60
2018-01-11T10:44:35.554Z,32.73
2018-01-11T10:47:03.078Z,33.00
2018-01-11T10:49:30.592Z,33.07
2018-01-11T10:51:58.118Z,32.57
2018-01-11T10:54:25.690Z,32.07
2018-01-11T10:56:53.268Z,32.07
2018-01-11T10:59:20.794Z,31.43
2018-01-11T11:01:54.026Z,32.20
2018-01-11T11:04:21.549Z,32.90
2018-01-11T11:06:49.110Z,30.27
2018-01-11T11:09:16.641Z,31.97
2018-01-11T11:11:44.986Z,31.53
2018-01-11T11:14:12.515Z,31.70
2018-01-11T11:16:40.036Z,32.07
2018-01-11T11:19:07.567Z,32.93
2018-01-11T11:21:35.097Z,32.83
2018-01-11T11:24:02.676Z,32.37
2018-01-11T11:26:30.206Z,32.97
2018-01-11T11:28:57.811Z,32.47
2018-01-11T11:31:25.366Z,31.40
2018-01-11T11:33:52.931Z,31.67
2018-01-11T11:36:20.493Z,31.83
2018-01-11T11:38:48.017Z,32.30
2018-01-11T11:41:15.608Z,33.13
2018-01-11T11:43:43.158Z,32.50
2018-01-11T11:46:10.674Z,35.17
2018-01-11T11:48:38.292Z,32.43
2018-01-11T11:51:05.806Z,33.27
2018-01-11T11:53:33.401Z,35.00
2018-01-11T11:56:00.920Z,33.97
2018-01-11T11:58:28.527Z,34.40
2018-01-11T12:00:56.066Z,34.77
2018-01-11T12:03:23.586Z,34.33
2018-01-11T12:05:51.106Z,34.50
2018-01-11T12:08:18.631Z,33.83
2018-01-11T12:10:46.159Z,34.37
2018-01-11T12:13:13.686Z,34.97
2018-01-11T12:15:41.245Z,36.73
2018-01-11T12:18:08.793Z,35.83
2018-01-11T12:20:36.310Z,34.90
2018-01-11T12:23:03.829Z,36.47
2018-01-11T12:25:31.349Z,37.93
2018-01-11T12:27:58.940Z,36.40
2018-01-11T12:30:26.467Z,37.63
2018-01-11T12:32:54.062Z,36.43
2018-01-11T12:35:21.580Z,37.03
2018-01-11T12:37:49.140Z,36.63
2018-01-11T12:40:16.740Z,36.10
2018-01-11T12:42:44.297Z,38.20
2018-01-11T12:45:11.861Z,37.20
2018-01-11T12:47:39.391Z,36.80
2018-01-11T12:50:06.909Z,36.73
2018-01-11T12:52:34.546Z,36.60
2018-01-11T12:55:02.108Z,37.00
2018-01-11T12:57:29.631Z,36.23
2018-01-11T12:59:57.222Z,35.90
2018-01-11T13:02:24.755Z,37.47
2018-01-11T13:04:52.341Z,35.87
2018-01-11T13:07:19.863Z,36.07
2018-01-11T13:09:47.387Z,34.17
2018-01-11T13:12:14.908Z,36.23
2018-01-11T13:14:42.482Z,35.53
2018-01-11T13:17:10.014Z,35.33
2018-01-11T13:19:37.528Z,35.63
2018-01-11T13:22:05.056Z,35.23
2018-01-11T13:24:32.590Z,36.30
2018-01-11T13:27:00.180Z,34.27
2018-01-11T13:29:27.704Z,36.70
2018-01-11T13:31:55.239Z,35.57
2018-01-11T13:34:22.758Z,34.27
2018-01-11T13:36:50.286Z,34.30
2018-01-11T13:39:17.834Z,35.17
2018-01-11T13:41:45.433Z,35.83
2018-01-11T13:44:12.993Z,34.37
2018-01-11T13:46:40.514Z,34.87
2018-01-11T13:49:08.077Z,34.33
2018-01-11T13:51:35.631Z,34.60
2018-01-11T13:54:03.224Z,33.90
2018-01-11T13:56:30.753Z,35.63
2018-01-11T13:58:58.290Z,36.60
2018-01-11T14:01:25.914Z,36.57
2018-01-11T14:03:53.464Z,35.63
2018-01-11T14:06:20.991Z,36.67
2018-01-11T14:08:48.519Z,36.17
2018-01-11T14:11:16.081Z,37.47
2018-01-11T14:13:43.605Z,35.63
2018-01-11T14:16:11.195Z,35.50
2018-01-11T14:18:38.723Z,35.47
2018-01-11T14:21:06.236Z,36.53
2018-01-11T14:23:33.755Z,37.17
2018-01-11T14:26:01.269Z,37.07
2018-01-11T14:28:28.794Z,36.13
2018-01-11T14:30:56.437Z,34.17
2018-01-11T14:33:23.960Z,36.00
2018-01-11T14:35:51.483Z,34.17
2018-01-11T14:38:19.015Z,35.57
2018-01-11T14:40:46.571Z,35.63
2018-01-11T14:43:14.085Z,34.93
2018-01-11T14:45:41.610Z,35.03
2018-01-11T14:48:09.134Z,34.10
2018-01-11T14:50:36.664Z,34.40
2018-01-11T14:53:04.203Z,36.10
2018-01-11T14:55:31.731Z,37.03
2018-01-11T14:57:59.254Z,36.47
2018-01-11T15:00:26.847Z,36.78
2018-01-11T15:02:54.372Z,36.27
2018-01-11T15:05:21.968Z,35.83
2018-01-11T15:07:49.490Z,36.33
2018-01-11T15:10:17.010Z,37.23
2018-01-11T15:12:44.528Z,36.20
2018-01-11T15:15:12.071Z,39.63
2018-01-11T15:17:39.666Z,38.23
2018-01-11T15:20:07.213Z,41.30
2018-01-11T15:22:34.780Z,40.23
2018-01-11T15:25:02.345Z,41.90
2018-01-11T15:27:29.876Z,43.10
2018-01-11T15:29:57.411Z,43.73
2018-01-11T15:32:24.941Z,42.10
2018-01-11T15:34:52.462Z,44.47
2018-01-11T15:37:20.039Z,42.53
2018-01-11T15:39:47.570Z,41.00
2018-01-11T15:42:15.091Z,41.03
2018-01-11T15:44:42.622Z,39.60
2018-01-11T15:47:10.146Z,39.90
2018-01-11T15:49:37.725Z,40.00
2018-01-11T15:52:05.246Z,39.80
2018-01-11T15:54:32.773Z,50.33
2018-01-11T15:57:00.302Z,44.03
2018-01-11T15:59:27.825Z,41.27
2018-01-11T16:01:55.346Z,41.63
2018-01-11T16:04:22.880Z,43.20
2018-01-11T16:06:50.457Z,41.60
2018-01-11T16:09:18.020Z,52.70
2018-01-11T16:11:45.596Z,44.50
2018-01-11T16:14:13.132Z,42.50
2018-01-11T16:16:40.703Z,44.43
2018-01-11T16:19:08.242Z,41.87
2018-01-11T16:21:35.889Z,42.77
2018-01-11T16:24:03.405Z,43.03
2018-01-11T16:26:30.941Z,40.77
2018-01-11T16:28:58.460Z,40.77
2018-01-11T16:31:25.985Z,39.90
2018-01-11T16:33:53.506Z,39.20
2018-01-11T16:36:21.061Z,37.60
2018-01-11T16:38:48.585Z,36.87
2018-01-11T16:41:16.117Z,32.77
2018-01-11T16:43:43.717Z,32.43
2018-01-11T16:46:11.242Z,32.60
2018-01-11T16:48:38.767Z,34.03
2018-01-11T16:51:06.297Z,34.20
2018-01-11T16:53:33.886Z,33.63
2018-01-11T16:56:01.405Z,35.27
2018-01-11T16:58:28.945Z,36.47
2018-01-11T17:00:56.469Z,38.60
2018-01-11T17:03:24.023Z,39.23
2018-01-11T17:05:51.583Z,35.33
2018-01-11T17:08:19.108Z,33.97
2018-01-11T17:10:46.667Z,35.03
2018-01-11T17:13:14.256Z,33.57
2018-01-11T17:15:41.782Z,34.80
2018-01-11T17:18:09.296Z,33.33
2018-01-11T17:20:36.821Z,33.83
2018-01-11T17:23:04.346Z,34.03
2018-01-11T17:25:31.966Z,33.53
2018-01-11T17:27:59.528Z,33.60
2018-01-11T17:30:27.054Z,31.90
2018-01-11T17:32:54.572Z,33.07
2018-01-11T17:35:22.203Z,32.97
2018-01-11T17:37:49.733Z,33.33
2018-01-11T17:40:17.281Z,31.30
2018-01-11T17:42:44.810Z,29.97
2018-01-11T17:45:12.343Z,30.80
2018-01-11T17:47:39.869Z,31.73
2018-01-11T17:50:07.418Z,32.73
2018-01-11T17:52:34.940Z,32.57
2018-01-11T17:55:02.583Z,32.53
2018-01-11T17:57:30.109Z,31.97
2018-01-11T17:59:57.630Z,33.30
2018-01-11T18:02:25.155Z,35.13
2018-01-11T18:04:52.683Z,33.73
2018-01-11T18:07:20.205Z,34.47
2018-01-11T18:09:47.759Z,34.90
2018-01-11T18:12:15.282Z,34.40
2018-01-11T18:14:42.807Z,33.70
2018-01-11T18:17:10.332Z,33.00
2018-01-11T18:19:37.849Z,31.20
2018-01-11T18:22:05.365Z,31.23
2018-01-11T18:24:32.887Z,32.67
2018-01-11T18:27:00.417Z,32.57
2018-01-11T18:29:27.969Z,32.60
2018-01-11T18:31:55.494Z,31.20
2018-01-11T18:34:23.134Z,31.30
2018-01-11T18:36:50.661Z,32.97
2018-01-11T18:39:18.221Z,31.23
2018-01-11T18:41:45.742Z,31.97
2018-01-11T18:44:13.260Z,33.60
2018-01-11T18:46:40.772Z,34.23
2018-01-11T18:49:08.377Z,31.53
2018-01-11T18:51:35.905Z,33.70
2018-01-11T18:54:03.440Z,35.53
2018-01-11T18:56:30.970Z,34.23
2018-01-11T18:58:58.553Z,37.03
2018-01-11T19:01:26.178Z,37.70
2018-01-11T19:03:53.754Z,37.50
2018-01-11T19:06:21.311Z,37.27
2018-01-11T19:08:48.837Z,38.03
2018-01-11T19:11:16.363Z,37.47
2018-01-11T19:13:43.888Z,37.53
2018-01-11T19:16:11.409Z,37.80
2018-01-11T19:18:39.005Z,40.47
2018-01-11T19:21:06.537Z,38.10
2018-01-11T19:23:34.065Z,36.47
2018-01-11T19:26:01.677Z,38.10
2018-01-11T19:28:29.244Z,40.70
2018-01-11T19:30:56.769Z,39.80
2018-01-11T19:33:24.313Z,38.93
2018-01-11T19:35:51.837Z,40.70
2018-01-11T19:38:19.382Z,40.10
2018-01-11T19:40:46.916Z,39.93
2018-01-11T19:43:14.445Z,39.73
2018-01-11T19:45:41.965Z,39.20
2018-01-11T19:48:09.520Z,39.23
2018-01-11T19:50:37.049Z,39.37
2018-01-11T19:53:04.575Z,40.50
2018-01-11T19:55:32.104Z,38.93
2018-01-11T19:57:59.615Z,39.67
2018-01-11T20:00:27.162Z,40.60
2018-01-11T20:02:54.685Z,40.83
2018-01-11T20:05:22.226Z,41.30
2018-01-11T20:07:49.753Z,41.00
2018-01-11T20:10:17.298Z,38.43
2018-01-11T20:12:44.829Z,40.23
2018-01-11T20:15:12.345Z,42.20
2018-01-11T20:17:39.883Z,41.60
2018-01-11T20:20:07.445Z,41.00
2018-01-11T20:22:35.011Z,42.87
2018-01-11T20:25:02.549Z,44.37
2018-01-11T20:27:30.076Z,41.80
2018-01-11T20:29:57.600Z,41.40
2018-01-11T20:32:25.138Z,43.03
2018-01-11T20:34:52.704Z,43.10
2018-01-11T20:37:20.258Z,45.53
2018-01-11T20:39:47.790Z,44.67
2018-01-11T20:42:15.452Z,44.77
2018-01-11T20:44:43.000Z,43.40
2018-01-11T20:47:10.554Z,41.63
2018-01-11T20:49:38.086Z,43.77
2018-01-11T20:52:05.612Z,42.90
2018-01-11T20:54:33.138Z,42.70
2018-01-11T20:57:00.670Z,41.77
2018-01-11T20:59:28.220Z,42.87
2018-01-11T21:01:55.753Z,42.40
2018-01-11T21:04:23.372Z,42.37
2018-01-11T21:06:50.898Z,42.93
2018-01-11T21:09:18.412Z,43.27
2018-01-11T21:11:45.950Z,44.13
2018-01-11T21:14:13.478Z,41.90
2018-01-11T21:16:41.073Z,43.00
2018-01-11T21:19:08.617Z,45.87
2018-01-11T21:21:36.179Z,45.07
2018-01-11T21:24:03.719Z,45.27
2018-01-11T21:26:31.263Z,44.40
2018-01-11T21:28:58.843Z,44.20
2018-01-11T21:31:26.364Z,43.07
2018-01-11T21:33:53.893Z,46.40
2018-01-11T21:36:21.443Z,47.83
2018-01-11T21:38:49.009Z,50.17
2018-01-11T21:41:16.569Z,48.87
2018-01-11T21:43:44.102Z,47.80
2018-01-11T21:46:11.688Z,51.87
2018-01-11T21:48:39.247Z,49.13
2018-01-11T21:51:06.784Z,52.33
2018-01-11T21:53:34.337Z,49.73
2018-01-11T21:56:01.899Z,49.80
2018-01-11T21:58:29.440Z,49.63
2018-01-11T22:00:56.981Z,50.50
2018-01-11T22:03:24.507Z,50.93
2018-01-11T22:05:52.030Z,51.57
2018-01-11T22:08:19.562Z,50.50
2018-01-11T22:10:47.185Z,51.47
2018-01-11T22:13:14.714Z,51.87
2018-01-11T22:15:42.314Z,49.90
2018-01-11T22:18:09.974Z,49.33
2018-01-11T22:20:37.523Z,52.13
2018-01-11T22:23:05.074Z,52.27
2018-01-11T22:25:32.605Z,51.50
2018-01-11T22:28:00.139Z,51.37
2018-01-11T22:30:27.707Z,49.90
2018-01-11T22:32:55.247Z,48.10
2018-01-11T22:35:22.771Z,47.13
2018-01-11T22:37:50.298Z,50.13
2018-01-11T22:40:17.907Z,50.10
2018-01-11T22:42:45.459Z,48.27
2018-01-11T22:45:12.992Z,48.00
2018-01-11T22:47:40.512Z,49.67
2018-01-11T22:50:08.042Z,58.10
2018-01-11T22:52:35.570Z,51.33
2018-01-11T22:55:03.122Z,50.87
2018-01-11T22:57:30.688Z,50.77
2018-01-11T22:59:58.285Z,49.27
2018-01-11T23:02:25.829Z,47.73
2018-01-11T23:04:53.364Z,49.27
2018-01-11T23:07:20.890Z,49.40
2018-01-11T23:09:48.450Z,48.83
2018-01-11T23:12:15.978Z,48.30
2018-01-11T23:14:43.510Z,47.23
2018-01-11T23:17:11.039Z,48.97
2018-01-11T23:19:38.619Z,47.67
2018-01-11T23:22:06.142Z,47.97
2018-01-11T23:24:33.686Z,48.23
2018-01-11T23:27:01.209Z,49.87
2018-01-11T23:29:28.739Z,50.93
2018-01-11T23:31:56.352Z,53.30
2018-01-11T23:34:23.885Z,50.87
2018-01-11T23:36:51.477Z,47.93
2018-01-11T23:39:19.010Z,51.33
2018-01-11T23:41:46.563Z,51.13
2018-01-11T23:44:14.080Z,48.87
2018-01-11T23:46:41.721Z,49.43
2018-01-11T23:49:09.283Z,51.87
2018-01-11T23:51:36.943Z,53.47
2018-01-11T23:54:04.485Z,52.97
2018-01-11T23:56:32.037Z,52.97
2018-01-11T23:58:59.563Z,52.07
